sensor_id;sensor_type;location;lat;lon;timestamp;P1;durP1;ratioP1;P2;durP2;ratioP2
18360;SDS011;9308;48.550;9.108;2022-12-24T00:01:14;2.43;;;1.47;;
18360;SDS011;9308;48.550;9.108;2022-12-24T00:03:40;2.90;;;2.27;;
18360;SDS011;9308;48.550;9.108;2022-12-24T00:06:06;5.30;;;2.40;;
18360;SDS011;9308;48.550;9.108;2022-12-24T00:08:33;3.70;;;2.03;;
18360;SDS011;9308;48.550;9.108;2022-12-24T00:10:59;4.73;;;2.00;;
18360;SDS011;9308;48.550;9.108;2022-12-24T00:13:24;2.57;;;1.77;;
18360;SDS011;9308;48.550;9.108;2022-12-24T00:15:50;4.73;;;1.80;;
18360;SDS011;9308;48.550;9.108;2022-12-24T00:18:16;4.47;;;2.07;;
18360;SDS011;9308;48.550;9.108;2022-12-24T00:20:44;2.50;;;1.70;;
18360;SDS011;9308;48.550;9.108;2022-12-24T00:23:11;3.20;;;1.60;;
18360;SDS011;9308;48.550;9.108;2022-12-24T00:25:37;2.83;;;1.90;;
18360;SDS011;9308;48.550;9.108;2022-12-24T00:28:02;5.03;;;1.80;;
18360;SDS011;9308;48.550;9.108;2022-12-24T00:30:28;4.30;;;2.33;;
18360;SDS011;9308;48.550;9.108;2022-12-24T00:32:54;2.53;;;1.60;;
18360;SDS011;9308;48.550;9.108;2022-12-24T00:35:19;3.17;;;1.90;;
18360;SDS011;9308;48.550;9.108;2022-12-24T00:37:47;3.07;;;1.97;;
18360;SDS011;9308;48.550;9.108;2022-12-24T00:40:13;3.30;;;1.83;;
18360;SDS011;9308;48.550;9.108;2022-12-24T00:42:39;3.83;;;1.80;;
18360;SDS011;9308;48.550;9.108;2022-12-24T00:45:05;4.30;;;1.83;;
18360;SDS011;9308;48.550;9.108;2022-12-24T00:47:31;4.27;;;1.70;;
18360;SDS011;9308;48.550;9.108;2022-12-24T00:49:56;4.03;;;2.00;;
18360;SDS011;9308;48.550;9.108;2022-12-24T00:52:22;3.53;;;1.70;;
18360;SDS011;9308;48.550;9.108;2022-12-24T00:54:47;3.70;;;2.20;;
18360;SDS011;9308;48.550;9.108;2022-12-24T00:57:12;6.37;;;2.30;;
18360;SDS011;9308;48.550;9.108;2022-12-24T00:59:38;2.60;;;1.60;;
18360;SDS011;9308;48.550;9.108;2022-12-24T01:02:03;3.20;;;2.00;;
18360;SDS011;9308;48.550;9.108;2022-12-24T01:04:29;4.80;;;2.40;;
18360;SDS011;9308;48.550;9.108;2022-12-24T01:07:14;3.50;;;2.33;;
18360;SDS011;9308;48.550;9.108;2022-12-24T01:09:40;3.53;;;2.10;;
18360;SDS011;9308;48.550;9.108;2022-12-24T01:12:05;3.60;;;2.33;;
18360;SDS011;9308;48.550;9.108;2022-12-24T01:14:30;3.87;;;2.23;;
18360;SDS011;9308;48.550;9.108;2022-12-24T01:16:56;4.10;;;2.10;;
18360;SDS011;9308;48.550;9.108;2022-12-24T01:19:21;3.50;;;2.43;;
18360;SDS011;9308;48.550;9.108;2022-12-24T01:21:47;4.90;;;2.00;;
18360;SDS011;9308;48.550;9.108;2022-12-24T01:24:13;4.43;;;2.23;;
18360;SDS011;9308;48.550;9.108;2022-12-24T01:26:40;4.23;;;2.23;;
18360;SDS011;9308;48.550;9.108;2022-12-24T01:29:05;3.60;;;1.93;;
18360;SDS011;9308;48.550;9.108;2022-12-24T01:31:31;3.90;;;2.17;;
18360;SDS011;9308;48.550;9.108;2022-12-24T01:33:56;3.63;;;2.23;;
18360;SDS011;9308;48.550;9.108;2022-12-24T01:36:21;4.80;;;2.70;;
18360;SDS011;9308;48.550;9.108;2022-12-24T01:38:47;4.53;;;2.20;;
18360;SDS011;9308;48.550;9.108;2022-12-24T01:41:13;2.37;;;1.93;;
18360;SDS011;9308;48.550;9.108;2022-12-24T01:47:03;3.50;;;2.37;;
18360;SDS011;9308;48.550;9.108;2022-12-24T01:49:33;6.17;;;2.50;;
18360;SDS011;9308;48.550;9.108;2022-12-24T01:52:00;5.60;;;2.63;;
18360;SDS011;9308;48.550;9.108;2022-12-24T01:54:46;6.40;;;3.00;;
18360;SDS011;9308;48.550;9.108;2022-12-24T01:57:17;5.43;;;2.43;;
18360;SDS011;9308;48.550;9.108;2022-12-24T01:59:48;4.67;;;2.33;;
18360;SDS011;9308;48.550;9.108;2022-12-24T02:02:17;4.13;;;2.00;;
18360;SDS011;9308;48.550;9.108;2022-12-24T02:04:50;5.73;;;1.90;;
18360;SDS011;9308;48.550;9.108;2022-12-24T02:07:21;3.73;;;2.30;;
18360;SDS011;9308;48.550;9.108;2022-12-24T02:09:47;8.97;;;2.13;;
18360;SDS011;9308;48.550;9.108;2022-12-24T02:12:15;7.20;;;2.43;;
18360;SDS011;9308;48.550;9.108;2022-12-24T02:14:41;5.40;;;2.33;;
18360;SDS011;9308;48.550;9.108;2022-12-24T02:17:11;5.87;;;2.67;;
18360;SDS011;9308;48.550;9.108;2022-12-24T02:30:50;2.30;;;1.90;;
18360;SDS011;9308;48.550;9.108;2022-12-24T02:33:24;7.70;;;2.80;;
18360;SDS011;9308;48.550;9.108;2022-12-24T02:36:05;8.63;;;2.20;;
18360;SDS011;9308;48.550;9.108;2022-12-24T02:38:42;6.10;;;2.20;;
18360;SDS011;9308;48.550;9.108;2022-12-24T02:41:32;8.50;;;2.80;;
18360;SDS011;9308;48.550;9.108;2022-12-24T02:44:20;5.00;;;2.47;;
18360;SDS011;9308;48.550;9.108;2022-12-24T02:46:48;5.10;;;2.27;;
18360;SDS011;9308;48.550;9.108;2022-12-24T02:49:15;4.77;;;2.20;;
18360;SDS011;9308;48.550;9.108;2022-12-24T02:51:40;2.70;;;2.00;;
18360;SDS011;9308;48.550;9.108;2022-12-24T02:54:06;3.90;;;2.10;;
18360;SDS011;9308;48.550;9.108;2022-12-24T02:56:36;2.23;;;2.00;;
18360;SDS011;9308;48.550;9.108;2022-12-24T03:07:56;3.60;;;2.00;;
18360;SDS011;9308;48.550;9.108;2022-12-24T03:13:12;4.17;;;2.40;;
18360;SDS011;9308;48.550;9.108;2022-12-24T03:15:40;5.50;;;2.43;;
18360;SDS011;9308;48.550;9.108;2022-12-24T03:18:08;7.93;;;2.40;;
18360;SDS011;9308;48.550;9.108;2022-12-24T03:20:37;4.43;;;2.50;;
18360;SDS011;9308;48.550;9.108;2022-12-24T03:23:04;6.63;;;2.77;;
18360;SDS011;9308;48.550;9.108;2022-12-24T03:25:30;3.13;;;1.80;;
18360;SDS011;9308;48.550;9.108;2022-12-24T03:27:57;5.03;;;2.30;;
18360;SDS011;9308;48.550;9.108;2022-12-24T03:30:25;4.80;;;2.33;;
18360;SDS011;9308;48.550;9.108;2022-12-24T03:32:51;4.30;;;2.60;;
18360;SDS011;9308;48.550;9.108;2022-12-24T03:35:16;2.63;;;2.43;;
18360;SDS011;9308;48.550;9.108;2022-12-24T03:37:42;7.70;;;3.07;;
18360;SDS011;9308;48.550;9.108;2022-12-24T03:40:07;5.33;;;2.20;;
18360;SDS011;9308;48.550;9.108;2022-12-24T03:42:33;4.20;;;2.73;;
18360;SDS011;9308;48.550;9.108;2022-12-24T03:44:59;3.10;;;1.60;;
18360;SDS011;9308;48.550;9.108;2022-12-24T03:47:24;4.67;;;2.60;;
18360;SDS011;9308;48.550;9.108;2022-12-24T03:49:50;4.00;;;2.40;;
18360;SDS011;9308;48.550;9.108;2022-12-24T03:52:16;3.93;;;2.33;;
18360;SDS011;9308;48.550;9.108;2022-12-24T03:54:41;3.47;;;2.87;;
18360;SDS011;9308;48.550;9.108;2022-12-24T03:57:07;5.30;;;2.60;;
18360;SDS011;9308;48.550;9.108;2022-12-24T03:59:32;2.80;;;2.07;;
18360;SDS011;9308;48.550;9.108;2022-12-24T04:01:58;4.97;;;2.17;;
18360;SDS011;9308;48.550;9.108;2022-12-24T04:04:23;3.80;;;1.87;;
18360;SDS011;9308;48.550;9.108;2022-12-24T04:06:49;5.10;;;2.50;;
18360;SDS011;9308;48.550;9.108;2022-12-24T04:09:14;6.23;;;2.50;;
18360;SDS011;9308;48.550;9.108;2022-12-24T04:11:40;5.37;;;2.20;;
18360;SDS011;9308;48.550;9.108;2022-12-24T04:14:05;6.60;;;2.93;;
18360;SDS011;9308;48.550;9.108;2022-12-24T04:16:31;3.50;;;2.40;;
18360;SDS011;9308;48.550;9.108;2022-12-24T04:18:56;5.27;;;2.70;;
18360;SDS011;9308;48.550;9.108;2022-12-24T04:21:21;4.20;;;2.70;;
18360;SDS011;9308;48.550;9.108;2022-12-24T04:23:47;4.80;;;2.80;;
18360;SDS011;9308;48.550;9.108;2022-12-24T04:26:13;4.83;;;2.30;;
18360;SDS011;9308;48.550;9.108;2022-12-24T04:28:39;6.67;;;2.50;;
18360;SDS011;9308;48.550;9.108;2022-12-24T04:31:06;4.40;;;2.20;;
18360;SDS011;9308;48.550;9.108;2022-12-24T04:33:33;5.63;;;2.97;;
18360;SDS011;9308;48.550;9.108;2022-12-24T04:36:00;3.97;;;2.83;;
18360;SDS011;9308;48.550;9.108;2022-12-24T04:38:27;3.03;;;2.30;;
18360;SDS011;9308;48.550;9.108;2022-12-24T04:41:06;7.47;;;2.90;;
18360;SDS011;9308;48.550;9.108;2022-12-24T04:43:34;5.33;;;2.70;;
18360;SDS011;9308;48.550;9.108;2022-12-24T04:46:04;4.00;;;2.33;;
18360;SDS011;9308;48.550;9.108;2022-12-24T04:48:30;5.90;;;2.43;;
18360;SDS011;9308;48.550;9.108;2022-12-24T04:50:56;4.80;;;2.80;;
18360;SDS011;9308;48.550;9.108;2022-12-24T04:53:21;8.43;;;2.50;;
18360;SDS011;9308;48.550;9.108;2022-12-24T04:55:47;5.10;;;2.97;;
18360;SDS011;9308;48.550;9.108;2022-12-24T04:58:12;8.63;;;3.43;;
18360;SDS011;9308;48.550;9.108;2022-12-24T05:00:38;5.73;;;2.87;;
18360;SDS011;9308;48.550;9.108;2022-12-24T05:03:05;7.20;;;2.63;;
18360;SDS011;9308;48.550;9.108;2022-12-24T05:05:30;4.97;;;2.33;;
18360;SDS011;9308;48.550;9.108;2022-12-24T05:07:56;5.63;;;2.50;;
18360;SDS011;9308;48.550;9.108;2022-12-24T05:10:21;5.57;;;2.20;;
18360;SDS011;9308;48.550;9.108;2022-12-24T05:12:47;5.77;;;3.33;;
18360;SDS011;9308;48.550;9.108;2022-12-24T05:15:12;4.90;;;2.43;;
18360;SDS011;9308;48.550;9.108;2022-12-24T05:17:37;3.90;;;2.27;;
18360;SDS011;9308;48.550;9.108;2022-12-24T05:20:03;6.53;;;2.37;;
18360;SDS011;9308;48.550;9.108;2022-12-24T05:22:29;8.47;;;3.07;;
18360;SDS011;9308;48.550;9.108;2022-12-24T05:25:13;3.93;;;2.33;;
18360;SDS011;9308;48.550;9.108;2022-12-24T05:27:57;4.03;;;2.07;;
18360;SDS011;9308;48.550;9.108;2022-12-24T05:30:22;4.00;;;2.53;;
18360;SDS011;9308;48.550;9.108;2022-12-24T05:32:47;6.70;;;3.00;;
18360;SDS011;9308;48.550;9.108;2022-12-24T05:35:13;4.40;;;2.33;;
18360;SDS011;9308;48.550;9.108;2022-12-24T05:37:38;7.00;;;2.80;;
18360;SDS011;9308;48.550;9.108;2022-12-24T05:40:04;6.20;;;2.90;;
18360;SDS011;9308;48.550;9.108;2022-12-24T05:42:30;5.00;;;2.70;;
18360;SDS011;9308;48.550;9.108;2022-12-24T05:44:55;4.70;;;2.40;;
18360;SDS011;9308;48.550;9.108;2022-12-24T05:47:21;6.20;;;2.80;;
18360;SDS011;9308;48.550;9.108;2022-12-24T05:49:46;5.33;;;2.43;;
18360;SDS011;9308;48.550;9.108;2022-12-24T05:52:12;6.80;;;2.77;;
18360;SDS011;9308;48.550;9.108;2022-12-24T05:54:37;4.13;;;2.30;;
18360;SDS011;9308;48.550;9.108;2022-12-24T05:57:02;8.20;;;2.70;;
18360;SDS011;9308;48.550;9.108;2022-12-24T05:59:28;5.87;;;2.37;;
18360;SDS011;9308;48.550;9.108;2022-12-24T06:01:53;4.30;;;2.70;;
18360;SDS011;9308;48.550;9.108;2022-12-24T06:04:19;5.90;;;2.97;;
18360;SDS011;9308;48.550;9.108;2022-12-24T06:06:44;9.13;;;3.10;;
18360;SDS011;9308;48.550;9.108;2022-12-24T06:09:10;3.40;;;2.03;;
18360;SDS011;9308;48.550;9.108;2022-12-24T06:11:36;10.17;;;3.43;;
18360;SDS011;9308;48.550;9.108;2022-12-24T06:14:01;4.40;;;2.67;;
18360;SDS011;9308;48.550;9.108;2022-12-24T06:16:27;12.00;;;3.10;;
18360;SDS011;9308;48.550;9.108;2022-12-24T06:18:52;7.40;;;2.97;;
18360;SDS011;9308;48.550;9.108;2022-12-24T06:21:18;3.23;;;2.37;;
18360;SDS011;9308;48.550;9.108;2022-12-24T06:23:43;3.83;;;2.40;;
18360;SDS011;9308;48.550;9.108;2022-12-24T06:26:10;5.70;;;2.87;;
18360;SDS011;9308;48.550;9.108;2022-12-24T06:28:41;5.07;;;2.83;;
18360;SDS011;9308;48.550;9.108;2022-12-24T06:31:10;4.77;;;2.90;;
18360;SDS011;9308;48.550;9.108;2022-12-24T06:33:37;7.47;;;3.53;;
18360;SDS011;9308;48.550;9.108;2022-12-24T06:36:06;6.07;;;3.30;;
18360;SDS011;9308;48.550;9.108;2022-12-24T06:38:38;9.07;;;2.70;;
18360;SDS011;9308;48.550;9.108;2022-12-24T06:41:04;7.33;;;2.70;;
18360;SDS011;9308;48.550;9.108;2022-12-24T06:43:31;4.70;;;2.80;;
18360;SDS011;9308;48.550;9.108;2022-12-24T06:45:58;9.20;;;3.93;;
18360;SDS011;9308;48.550;9.108;2022-12-24T06:48:24;6.97;;;3.00;;
18360;SDS011;9308;48.550;9.108;2022-12-24T06:50:50;6.97;;;3.20;;
18360;SDS011;9308;48.550;9.108;2022-12-24T06:53:15;5.27;;;3.10;;
18360;SDS011;9308;48.550;9.108;2022-12-24T06:55:41;7.30;;;2.90;;
18360;SDS011;9308;48.550;9.108;2022-12-24T06:58:06;6.47;;;3.10;;
18360;SDS011;9308;48.550;9.108;2022-12-24T07:00:32;6.70;;;3.00;;
18360;SDS011;9308;48.550;9.108;2022-12-24T07:02:57;8.43;;;3.67;;
18360;SDS011;9308;48.550;9.108;2022-12-24T07:05:23;7.20;;;3.00;;
18360;SDS011;9308;48.550;9.108;2022-12-24T07:07:48;7.27;;;3.40;;
18360;SDS011;9308;48.550;9.108;2022-12-24T07:10:15;10.70;;;3.00;;
18360;SDS011;9308;48.550;9.108;2022-12-24T07:12:41;4.17;;;2.63;;
18360;SDS011;9308;48.550;9.108;2022-12-24T07:15:07;7.30;;;2.80;;
18360;SDS011;9308;48.550;9.108;2022-12-24T07:17:35;7.23;;;2.90;;
18360;SDS011;9308;48.550;9.108;2022-12-24T07:20:00;8.70;;;3.00;;
18360;SDS011;9308;48.550;9.108;2022-12-24T07:22:26;5.40;;;2.70;;
18360;SDS011;9308;48.550;9.108;2022-12-24T07:24:51;6.00;;;3.43;;
18360;SDS011;9308;48.550;9.108;2022-12-24T07:27:17;5.93;;;3.70;;
18360;SDS011;9308;48.550;9.108;2022-12-24T07:29:42;10.70;;;3.77;;
18360;SDS011;9308;48.550;9.108;2022-12-24T07:32:08;6.30;;;3.77;;
18360;SDS011;9308;48.550;9.108;2022-12-24T07:34:33;6.87;;;3.23;;
18360;SDS011;9308;48.550;9.108;2022-12-24T07:36:59;6.73;;;3.00;;
18360;SDS011;9308;48.550;9.108;2022-12-24T07:39:24;5.23;;;3.40;;
18360;SDS011;9308;48.550;9.108;2022-12-24T07:41:50;4.23;;;2.67;;
18360;SDS011;9308;48.550;9.108;2022-12-24T07:44:15;12.00;;;3.60;;
18360;SDS011;9308;48.550;9.108;2022-12-24T07:46:41;10.80;;;3.60;;
18360;SDS011;9308;48.550;9.108;2022-12-24T07:49:08;5.20;;;3.43;;
18360;SDS011;9308;48.550;9.108;2022-12-24T07:51:33;7.30;;;3.67;;
18360;SDS011;9308;48.550;9.108;2022-12-24T07:53:58;7.00;;;3.53;;
18360;SDS011;9308;48.550;9.108;2022-12-24T07:56:24;6.97;;;3.00;;
18360;SDS011;9308;48.550;9.108;2022-12-24T07:58:50;5.90;;;2.97;;
18360;SDS011;9308;48.550;9.108;2022-12-24T08:01:16;5.57;;;3.30;;
18360;SDS011;9308;48.550;9.108;2022-12-24T08:03:42;7.10;;;3.10;;
18360;SDS011;9308;48.550;9.108;2022-12-24T08:06:08;7.13;;;3.50;;
18360;SDS011;9308;48.550;9.108;2022-12-24T08:08:34;9.23;;;3.80;;
18360;SDS011;9308;48.550;9.108;2022-12-24T08:11:01;6.40;;;3.27;;
18360;SDS011;9308;48.550;9.108;2022-12-24T08:13:28;6.80;;;3.70;;
18360;SDS011;9308;48.550;9.108;2022-12-24T08:15:53;9.10;;;3.90;;
18360;SDS011;9308;48.550;9.108;2022-12-24T08:18:19;11.97;;;5.43;;
18360;SDS011;9308;48.550;9.108;2022-12-24T08:20:45;13.10;;;6.30;;
18360;SDS011;9308;48.550;9.108;2022-12-24T08:23:11;9.00;;;5.07;;
18360;SDS011;9308;48.550;9.108;2022-12-24T08:25:36;16.73;;;4.67;;
18360;SDS011;9308;48.550;9.108;2022-12-24T08:30:35;11.43;;;4.93;;
18360;SDS011;9308;48.550;9.108;2022-12-24T08:33:01;8.23;;;4.77;;
18360;SDS011;9308;48.550;9.108;2022-12-24T08:35:26;8.50;;;4.27;;
18360;SDS011;9308;48.550;9.108;2022-12-24T08:37:52;6.90;;;4.20;;
18360;SDS011;9308;48.550;9.108;2022-12-24T08:40:18;7.00;;;3.70;;
18360;SDS011;9308;48.550;9.108;2022-12-24T08:42:43;8.63;;;3.70;;
18360;SDS011;9308;48.550;9.108;2022-12-24T08:45:09;9.13;;;4.73;;
18360;SDS011;9308;48.550;9.108;2022-12-24T08:47:35;9.90;;;4.37;;
18360;SDS011;9308;48.550;9.108;2022-12-24T08:50:02;12.23;;;4.60;;
18360;SDS011;9308;48.550;9.108;2022-12-24T08:52:28;11.33;;;4.30;;
18360;SDS011;9308;48.550;9.108;2022-12-24T08:54:54;8.87;;;4.10;;
18360;SDS011;9308;48.550;9.108;2022-12-24T08:57:19;11.13;;;4.33;;
18360;SDS011;9308;48.550;9.108;2022-12-24T08:59:45;9.20;;;4.70;;
18360;SDS011;9308;48.550;9.108;2022-12-24T09:02:10;11.13;;;5.67;;
18360;SDS011;9308;48.550;9.108;2022-12-24T09:04:38;12.53;;;4.80;;
18360;SDS011;9308;48.550;9.108;2022-12-24T09:07:05;10.03;;;5.10;;
18360;SDS011;9308;48.550;9.108;2022-12-24T09:09:31;15.77;;;6.83;;
18360;SDS011;9308;48.550;9.108;2022-12-24T09:11:57;13.00;;;5.60;;
18360;SDS011;9308;48.550;9.108;2022-12-24T09:14:22;10.73;;;5.30;;
18360;SDS011;9308;48.550;9.108;2022-12-24T09:16:48;7.73;;;4.13;;
18360;SDS011;9308;48.550;9.108;2022-12-24T09:19:13;11.67;;;5.30;;
18360;SDS011;9308;48.550;9.108;2022-12-24T09:21:39;11.80;;;5.43;;
18360;SDS011;9308;48.550;9.108;2022-12-24T09:24:04;8.40;;;5.27;;
18360;SDS011;9308;48.550;9.108;2022-12-24T09:26:30;11.80;;;4.47;;
18360;SDS011;9308;48.550;9.108;2022-12-24T09:28:56;6.77;;;3.37;;
18360;SDS011;9308;48.550;9.108;2022-12-24T09:31:23;10.87;;;4.97;;
18360;SDS011;9308;48.550;9.108;2022-12-24T09:33:49;5.43;;;3.90;;
18360;SDS011;9308;48.550;9.108;2022-12-24T09:36:16;6.03;;;3.80;;
18360;SDS011;9308;48.550;9.108;2022-12-24T09:38:42;11.03;;;4.00;;
18360;SDS011;9308;48.550;9.108;2022-12-24T09:41:12;14.70;;;3.93;;
18360;SDS011;9308;48.550;9.108;2022-12-24T09:43:42;6.73;;;4.43;;
18360;SDS011;9308;48.550;9.108;2022-12-24T09:46:21;11.30;;;6.23;;
18360;SDS011;9308;48.550;9.108;2022-12-24T09:48:57;11.87;;;5.00;;
18360;SDS011;9308;48.550;9.108;2022-12-24T09:51:30;11.50;;;4.90;;
18360;SDS011;9308;48.550;9.108;2022-12-24T09:54:03;11.60;;;4.50;;
18360;SDS011;9308;48.550;9.108;2022-12-24T09:56:39;9.83;;;4.17;;
18360;SDS011;9308;48.550;9.108;2022-12-24T09:59:15;8.77;;;2.87;;
18360;SDS011;9308;48.550;9.108;2022-12-24T10:01:42;6.60;;;3.43;;
18360;SDS011;9308;48.550;9.108;2022-12-24T10:04:12;8.80;;;3.50;;
18360;SDS011;9308;48.550;9.108;2022-12-24T10:13:11;8.80;;;3.40;;
18360;SDS011;9308;48.550;9.108;2022-12-24T10:15:46;7.83;;;3.17;;
18360;SDS011;9308;48.550;9.108;2022-12-24T10:18:22;7.00;;;3.10;;
18360;SDS011;9308;48.550;9.108;2022-12-24T10:21:03;9.97;;;3.67;;
18360;SDS011;9308;48.550;9.108;2022-12-24T10:26:21;8.67;;;2.97;;
18360;SDS011;9308;48.550;9.108;2022-12-24T10:28:55;6.90;;;3.40;;
18360;SDS011;9308;48.550;9.108;2022-12-24T10:31:44;9.37;;;3.80;;
18360;SDS011;9308;48.550;9.108;2022-12-24T10:34:19;7.43;;;3.47;;
18360;SDS011;9308;48.550;9.108;2022-12-24T10:36:47;11.03;;;4.20;;
18360;SDS011;9308;48.550;9.108;2022-12-24T10:39:17;5.70;;;3.50;;
18360;SDS011;9308;48.550;9.108;2022-12-24T10:41:46;7.57;;;3.30;;
18360;SDS011;9308;48.550;9.108;2022-12-24T10:44:14;9.20;;;3.50;;
18360;SDS011;9308;48.550;9.108;2022-12-24T10:46:43;11.30;;;3.30;;
18360;SDS011;9308;48.550;9.108;2022-12-24T10:49:14;10.23;;;3.10;;
18360;SDS011;9308;48.550;9.108;2022-12-24T10:51:55;12.37;;;3.90;;
18360;SDS011;9308;48.550;9.108;2022-12-24T10:54:25;8.53;;;3.23;;
18360;SDS011;9308;48.550;9.108;2022-12-24T10:56:56;10.17;;;3.23;;
18360;SDS011;9308;48.550;9.108;2022-12-24T10:59:27;9.70;;;3.13;;
18360;SDS011;9308;48.550;9.108;2022-12-24T11:01:54;8.67;;;3.80;;
18360;SDS011;9308;48.550;9.108;2022-12-24T11:04:22;6.43;;;2.93;;
18360;SDS011;9308;48.550;9.108;2022-12-24T11:06:54;7.43;;;3.30;;
18360;SDS011;9308;48.550;9.108;2022-12-24T11:09:31;8.40;;;3.07;;
18360;SDS011;9308;48.550;9.108;2022-12-24T11:12:04;9.07;;;3.67;;
18360;SDS011;9308;48.550;9.108;2022-12-24T11:14:39;6.43;;;2.97;;
18360;SDS011;9308;48.550;9.108;2022-12-24T11:17:05;7.23;;;3.70;;
18360;SDS011;9308;48.550;9.108;2022-12-24T11:19:34;8.20;;;3.17;;
18360;SDS011;9308;48.550;9.108;2022-12-24T11:22:05;13.17;;;3.50;;
18360;SDS011;9308;48.550;9.108;2022-12-24T11:24:35;4.70;;;2.70;;
18360;SDS011;9308;48.550;9.108;2022-12-24T11:32:39;6.73;;;3.40;;
18360;SDS011;9308;48.550;9.108;2022-12-24T11:35:16;10.10;;;3.70;;
18360;SDS011;9308;48.550;9.108;2022-12-24T11:40:34;6.77;;;3.03;;
18360;SDS011;9308;48.550;9.108;2022-12-24T11:43:05;9.00;;;3.80;;
18360;SDS011;9308;48.550;9.108;2022-12-24T11:45:31;12.87;;;6.07;;
18360;SDS011;9308;48.550;9.108;2022-12-24T11:47:58;10.93;;;4.27;;
18360;SDS011;9308;48.550;9.108;2022-12-24T11:50:31;7.60;;;2.83;;
18360;SDS011;9308;48.550;9.108;2022-12-24T11:55:41;9.20;;;4.33;;
18360;SDS011;9308;48.550;9.108;2022-12-24T11:58:24;7.80;;;3.07;;
18360;SDS011;9308;48.550;9.108;2022-12-24T12:00:59;5.20;;;3.33;;
18360;SDS011;9308;48.550;9.108;2022-12-24T12:03:31;10.40;;;4.13;;
18360;SDS011;9308;48.550;9.108;2022-12-24T12:06:02;10.03;;;4.23;;
18360;SDS011;9308;48.550;9.108;2022-12-24T12:08:37;9.03;;;4.20;;
18360;SDS011;9308;48.550;9.108;2022-12-24T12:11:08;7.20;;;3.63;;
18360;SDS011;9308;48.550;9.108;2022-12-24T12:13:37;9.80;;;4.03;;
18360;SDS011;9308;48.550;9.108;2022-12-24T12:19:02;7.27;;;3.80;;
18360;SDS011;9308;48.550;9.108;2022-12-24T12:21:34;11.37;;;3.53;;
18360;SDS011;9308;48.550;9.108;2022-12-24T12:24:11;7.87;;;3.93;;
18360;SDS011;9308;48.550;9.108;2022-12-24T12:26:41;9.60;;;3.50;;
18360;SDS011;9308;48.550;9.108;2022-12-24T12:32:03;8.47;;;4.00;;
18360;SDS011;9308;48.550;9.108;2022-12-24T12:34:31;10.87;;;3.80;;
18360;SDS011;9308;48.550;9.108;2022-12-24T12:37:13;5.33;;;2.50;;
18360;SDS011;9308;48.550;9.108;2022-12-24T12:39:46;6.40;;;3.67;;
18360;SDS011;9308;48.550;9.108;2022-12-24T12:48:06;9.40;;;3.43;;
18360;SDS011;9308;48.550;9.108;2022-12-24T12:50:57;8.93;;;3.83;;
18360;SDS011;9308;48.550;9.108;2022-12-24T12:54:03;9.10;;;3.30;;
18360;SDS011;9308;48.550;9.108;2022-12-24T12:56:39;10.67;;;4.17;;
18360;SDS011;9308;48.550;9.108;2022-12-24T12:59:19;7.77;;;3.43;;
18360;SDS011;9308;48.550;9.108;2022-12-24T13:01:54;7.53;;;3.50;;
18360;SDS011;9308;48.550;9.108;2022-12-24T13:10:25;8.00;;;4.33;;
18360;SDS011;9308;48.550;9.108;2022-12-24T13:15:41;8.10;;;3.27;;
18360;SDS011;9308;48.550;9.108;2022-12-24T13:21:16;7.87;;;2.80;;
18360;SDS011;9308;48.550;9.108;2022-12-24T13:23:44;7.07;;;3.40;;
18360;SDS011;9308;48.550;9.108;2022-12-24T13:26:10;7.70;;;3.20;;
18360;SDS011;9308;48.550;9.108;2022-12-24T13:28:38;5.30;;;3.30;;
18360;SDS011;9308;48.550;9.108;2022-12-24T13:33:51;7.57;;;3.03;;
18360;SDS011;9308;48.550;9.108;2022-12-24T13:36:18;9.00;;;3.60;;
18360;SDS011;9308;48.550;9.108;2022-12-24T13:49:40;9.40;;;3.90;;
18360;SDS011;9308;48.550;9.108;2022-12-24T13:54:37;8.80;;;3.50;;
18360;SDS011;9308;48.550;9.108;2022-12-24T14:00:06;7.23;;;4.53;;
18360;SDS011;9308;48.550;9.108;2022-12-24T14:03:03;9.87;;;5.13;;
18360;SDS011;9308;48.550;9.108;2022-12-24T14:05:42;9.33;;;4.17;;
18360;SDS011;9308;48.550;9.108;2022-12-24T14:08:11;7.13;;;3.73;;
18360;SDS011;9308;48.550;9.108;2022-12-24T14:10:42;8.70;;;4.57;;
18360;SDS011;9308;48.550;9.108;2022-12-24T14:13:49;4.90;;;3.70;;
18360;SDS011;9308;48.550;9.108;2022-12-24T14:16:11;11.93;;;4.73;;
18360;SDS011;9308;48.550;9.108;2022-12-24T14:18:40;10.33;;;5.00;;
18360;SDS011;9308;48.550;9.108;2022-12-24T14:24:14;12.13;;;6.77;;
18360;SDS011;9308;48.550;9.108;2022-12-24T14:26:46;9.20;;;5.30;;
18360;SDS011;9308;48.550;9.108;2022-12-24T14:29:15;9.33;;;3.70;;
18360;SDS011;9308;48.550;9.108;2022-12-24T14:31:53;6.87;;;3.50;;
18360;SDS011;9308;48.550;9.108;2022-12-24T14:34:21;11.27;;;3.30;;
18360;SDS011;9308;48.550;9.108;2022-12-24T14:36:47;6.33;;;3.67;;
18360;SDS011;9308;48.550;9.108;2022-12-24T14:39:24;8.33;;;4.13;;
18360;SDS011;9308;48.550;9.108;2022-12-24T14:47:28;5.33;;;2.97;;
18360;SDS011;9308;48.550;9.108;2022-12-24T14:53:06;9.00;;;3.00;;
18360;SDS011;9308;48.550;9.108;2022-12-24T14:55:46;5.80;;;3.37;;
18360;SDS011;9308;48.550;9.108;2022-12-24T14:58:23;4.80;;;3.53;;
18360;SDS011;9308;48.550;9.108;2022-12-24T15:00:56;8.23;;;4.00;;
18360;SDS011;9308;48.550;9.108;2022-12-24T15:03:25;8.60;;;3.73;;
18360;SDS011;9308;48.550;9.108;2022-12-24T15:05:54;5.00;;;3.23;;
18360;SDS011;9308;48.550;9.108;2022-12-24T15:11:18;6.87;;;2.73;;
18360;SDS011;9308;48.550;9.108;2022-12-24T15:13:47;7.50;;;3.60;;
18360;SDS011;9308;48.550;9.108;2022-12-24T15:16:35;6.03;;;2.73;;
18360;SDS011;9308;48.550;9.108;2022-12-24T15:19:02;6.77;;;3.40;;
18360;SDS011;9308;48.550;9.108;2022-12-24T15:23:54;9.03;;;3.60;;
18360;SDS011;9308;48.550;9.108;2022-12-24T15:26:22;7.57;;;3.90;;
18360;SDS011;9308;48.550;9.108;2022-12-24T15:28:53;5.63;;;3.50;;
18360;SDS011;9308;48.550;9.108;2022-12-24T15:31:21;9.60;;;3.33;;
18360;SDS011;9308;48.550;9.108;2022-12-24T15:33:48;6.20;;;3.37;;
18360;SDS011;9308;48.550;9.108;2022-12-24T15:36:16;8.97;;;4.00;;
18360;SDS011;9308;48.550;9.108;2022-12-24T15:38:50;10.50;;;3.73;;
18360;SDS011;9308;48.550;9.108;2022-12-24T15:41:21;6.57;;;4.07;;
18360;SDS011;9308;48.550;9.108;2022-12-24T15:43:49;8.23;;;3.70;;
18360;SDS011;9308;48.550;9.108;2022-12-24T15:46:16;5.77;;;3.30;;
18360;SDS011;9308;48.550;9.108;2022-12-24T15:48:44;8.77;;;4.47;;
18360;SDS011;9308;48.550;9.108;2022-12-24T15:51:10;6.97;;;5.10;;
18360;SDS011;9308;48.550;9.108;2022-12-24T15:53:40;10.00;;;5.97;;
18360;SDS011;9308;48.550;9.108;2022-12-24T15:56:09;7.23;;;6.40;;
18360;SDS011;9308;48.550;9.108;2022-12-24T15:58:42;7.70;;;5.90;;
18360;SDS011;9308;48.550;9.108;2022-12-24T16:03:38;7.90;;;6.20;;
18360;SDS011;9308;48.550;9.108;2022-12-24T16:06:05;12.60;;;7.90;;
18360;SDS011;9308;48.550;9.108;2022-12-24T16:08:38;14.50;;;7.57;;
18360;SDS011;9308;48.550;9.108;2022-12-24T16:14:03;12.70;;;8.30;;
18360;SDS011;9308;48.550;9.108;2022-12-24T16:16:36;12.57;;;6.80;;
18360;SDS011;9308;48.550;9.108;2022-12-24T16:19:04;6.57;;;5.53;;
18360;SDS011;9308;48.550;9.108;2022-12-24T16:21:38;7.80;;;5.13;;
18360;SDS011;9308;48.550;9.108;2022-12-24T16:24:15;8.80;;;5.07;;
18360;SDS011;9308;48.550;9.108;2022-12-24T16:26:46;10.27;;;5.93;;
18360;SDS011;9308;48.550;9.108;2022-12-24T16:29:12;8.33;;;5.10;;
18360;SDS011;9308;48.550;9.108;2022-12-24T16:31:43;5.53;;;5.03;;
18360;SDS011;9308;48.550;9.108;2022-12-24T16:34:11;9.70;;;5.47;;
18360;SDS011;9308;48.550;9.108;2022-12-24T16:36:39;13.77;;;5.57;;
18360;SDS011;9308;48.550;9.108;2022-12-24T16:39:15;8.03;;;4.87;;
18360;SDS011;9308;48.550;9.108;2022-12-24T16:41:49;7.67;;;5.00;;
18360;SDS011;9308;48.550;9.108;2022-12-24T16:44:34;8.60;;;4.93;;
18360;SDS011;9308;48.550;9.108;2022-12-24T16:47:01;6.93;;;4.33;;
18360;SDS011;9308;48.550;9.108;2022-12-24T16:49:27;6.13;;;4.30;;
18360;SDS011;9308;48.550;9.108;2022-12-24T16:51:53;6.40;;;4.20;;
18360;SDS011;9308;48.550;9.108;2022-12-24T16:54:19;6.33;;;4.50;;
18360;SDS011;9308;48.550;9.108;2022-12-24T16:56:45;8.17;;;4.20;;
18360;SDS011;9308;48.550;9.108;2022-12-24T16:59:20;8.80;;;4.33;;
18360;SDS011;9308;48.550;9.108;2022-12-24T17:01:47;4.90;;;3.60;;
18360;SDS011;9308;48.550;9.108;2022-12-24T17:04:13;6.30;;;4.20;;